Time,TemperatureF,DewpointF,PressureIn,WindDirection,WindDirectionDegrees,WindSpeedMPH,WindSpeedGustMPH,Humidity,HourlyPrecipIn,Conditions,Clouds,dailyrainin,SoftwareType,DateUTC
2013-09-07 00:03:00,69.3,67.8,29.84,West,270,1.0,4.0,95,0.00,,,0.00,meteohub,2013-09-07 07:03:00,
2013-09-07 00:08:00,69.3,67.8,29.84,WNW,293,3.0,4.0,95,0.00,,,0.00,meteohub,2013-09-07 07:08:00,
2013-09-07 00:13:00,69.1,67.6,29.84,SW,225,4.0,4.0,95,0.00,,,0.00,meteohub,2013-09-07 07:13:00,
2013-09-07 00:18:00,68.9,67.5,29.84,SW,225,0.0,4.0,95,0.00,,,0.00,meteohub,2013-09-07 07:18:00,
2013-09-07 00:23:00,68.9,67.6,29.84,SW,225,2.0,4.0,96,0.00,,,0.00,meteohub,2013-09-07 07:23:00,
2013-09-07 00:28:00,68.7,67.5,29.84,SW,225,2.0,4.0,96,0.00,,,0.00,meteohub,2013-09-07 07:28:00,
2013-09-07 00:33:00,68.7,67.8,29.84,West,270,2.0,2.0,97,0.00,,,0.00,meteohub,2013-09-07 07:33:00,
2013-09-07 00:38:00,68.5,67.6,29.84,West,270,2.0,3.0,97,0.00,,,0.00,meteohub,2013-09-07 07:38:00,
2013-09-07 00:43:00,68.5,67.6,29.84,West,270,2.0,3.0,97,0.00,,,0.00,meteohub,2013-09-07 07:43:00,
2013-09-07 00:48:00,68.4,67.5,29.84,West,270,2.0,3.0,97,0.00,,,0.00,meteohub,2013-09-07 07:48:00,
2013-09-07 00:53:00,68.5,68.0,29.84,West,270,2.0,3.0,98,0.00,,,0.00,meteohub,2013-09-07 07:53:00,
2013-09-07 00:58:00,68.5,68.0,29.84,West,270,2.0,3.0,98,0.00,,,0.00,meteohub,2013-09-07 07:58:00,
2013-09-07 01:03:00,68.4,67.8,29.84,West,270,3.0,3.0,98,0.00,,,0.00,meteohub,2013-09-07 08:03:00,
2013-09-07 01:08:00,68.4,67.8,29.84,West,270,1.0,3.0,98,0.00,,,0.00,meteohub,2013-09-07 08:08:00,
2013-09-07 01:13:00,68.4,67.8,29.84,West,270,2.0,3.0,98,0.00,,,0.00,meteohub,2013-09-07 08:13:00,
2013-09-07 01:18:00,68.4,67.8,29.84,West,270,2.0,3.0,98,0.00,,,0.00,meteohub,2013-09-07 08:18:00,
2013-09-07 01:23:00,68.2,67.6,29.84,West,270,1.0,2.0,98,0.00,,,0.00,meteohub,2013-09-07 08:23:00,
2013-09-07 01:28:00,68.2,67.3,29.84,West,270,0.0,2.0,97,0.00,,,0.00,meteohub,2013-09-07 08:28:00,
2013-09-07 01:33:00,68.4,67.8,29.84,West,270,2.0,2.0,98,0.00,,,0.00,meteohub,2013-09-07 08:33:00,
2013-09-07 01:38:00,68.4,67.8,29.84,West,270,2.0,2.0,98,0.00,,,0.00,meteohub,2013-09-07 08:38:00,
2013-09-07 01:43:00,68.7,68.2,29.84,West,270,2.0,2.0,98,0.00,,,0.00,meteohub,2013-09-07 08:43:00,
2013-09-07 01:48:00,68.7,68.2,29.83,West,270,2.0,2.0,98,0.00,,,0.00,meteohub,2013-09-07 08:48:00,
2013-09-07 01:53:00,68.9,68.0,29.83,West,270,0.0,2.0,97,0.00,,,0.00,meteohub,2013-09-07 08:53:00,
2013-09-07 01:58:00,68.7,67.8,29.83,West,270,0.0,3.0,97,0.00,,,0.00,meteohub,2013-09-07 08:58:00,
2013-09-07 02:03:00,68.7,67.8,29.84,West,270,0.0,3.0,97,0.00,,,0.00,meteohub,2013-09-07 09:03:00,
2013-09-07 02:08:00,68.7,67.8,29.84,West,270,1.0,3.0,97,0.00,,,0.00,meteohub,2013-09-07 09:08:00,
2013-09-07 02:13:00,68.9,68.0,29.83,West,270,0.0,2.0,97,0.00,,,0.00,meteohub,2013-09-07 09:13:00,
2013-09-07 02:18:00,68.9,68.0,29.83,West,270,2.0,2.0,97,0.00,,,0.00,meteohub,2013-09-07 09:18:00,
2013-09-07 02:23:00,68.7,67.5,29.83,West,270,2.0,2.0,96,0.00,,,0.00,meteohub,2013-09-07 09:23:00,
2013-09-07 02:28:00,68.7,67.5,29.83,West,270,0.0,2.0,96,0.00,,,0.00,meteohub,2013-09-07 09:28:00,
2013-09-07 02:33:00,68.7,67.5,29.83,West,270,2.0,2.0,96,0.00,,,0.00,meteohub,2013-09-07 09:33:00,
2013-09-07 02:38:00,68.7,67.5,29.83,West,270,1.0,2.0,96,0.00,,,0.00,meteohub,2013-09-07 09:38:00,
2013-09-07 02:43:00,68.7,67.5,29.83,West,270,0.0,2.0,96,0.00,,,0.00,meteohub,2013-09-07 09:43:00,
2013-09-07 02:48:00,68.7,67.5,29.83,West,270,0.0,2.0,96,0.00,,,0.00,meteohub,2013-09-07 09:48:00,
2013-09-07 02:53:00,68.7,67.5,29.83,West,270,0.0,2.0,96,0.00,,,0.00,meteohub,2013-09-07 09:53:00,
2013-09-07 02:58:00,68.7,67.5,29.83,West,270,0.0,2.0,96,0.00,,,0.00,meteohub,2013-09-07 09:58:00,
2013-09-07 03:03:00,68.7,67.5,29.83,West,270,0.0,0.0,96,0.00,,,0.00,meteohub,2013-09-07 10:03:00,
2013-09-07 03:08:00,68.5,67.1,29.83,West,270,0.0,0.0,95,0.00,,,0.00,meteohub,2013-09-07 10:08:00,
2013-09-07 03:13:00,68.4,67.1,29.82,West,270,0.0,0.0,96,0.00,,,0.00,meteohub,2013-09-07 10:13:00,
2013-09-07 03:18:00,68.4,67.1,29.82,West,270,0.0,0.0,96,0.00,,,0.00,meteohub,2013-09-07 10:18:00,
2013-09-07 03:23:00,68.2,66.9,29.82,West,270,0.0,1.0,96,0.00,,,0.00,meteohub,2013-09-07 10:23:00,
2013-09-07 03:28:00,68.2,66.9,29.82,West,270,0.0,1.0,96,0.00,,,0.00,meteohub,2013-09-07 10:28:00,
2013-09-07 03:33:00,67.8,66.6,29.83,West,270,0.0,1.0,96,0.00,,,0.00,meteohub,2013-09-07 10:33:00,
2013-09-07 03:38:00,67.6,66.4,29.83,West,270,0.0,0.0,96,0.00,,,0.00,meteohub,2013-09-07 10:38:00,
2013-09-07 03:43:00,67.5,66.6,29.83,West,270,0.0,0.0,97,0.00,,,0.00,meteohub,2013-09-07 10:43:00,
2013-09-07 03:48:00,67.6,67.1,29.83,West,270,1.0,0.0,98,0.00,,,0.00,meteohub,2013-09-07 10:48:00,
2013-09-07 03:53:00,67.8,67.3,29.83,West,270,2.0,2.0,98,0.00,,,0.00,meteohub,2013-09-07 10:53:00,
2013-09-07 03:58:00,68.0,67.5,29.82,West,270,3.0,3.0,98,0.00,,,0.00,meteohub,2013-09-07 10:58:00,
2013-09-07 04:03:00,68.0,67.5,29.83,West,270,1.0,3.0,98,0.00,,,0.00,meteohub,2013-09-07 11:03:00,
2013-09-07 04:08:00,68.2,67.6,29.83,West,270,2.0,3.0,98,0.00,,,0.00,meteohub,2013-09-07 11:08:00,
2013-09-07 04:13:00,68.0,67.1,29.83,West,270,2.0,3.0,97,0.00,,,0.00,meteohub,2013-09-07 11:13:00,
2013-09-07 04:18:00,68.0,67.1,29.83,West,270,2.0,3.0,97,0.00,,,0.00,meteohub,2013-09-07 11:18:00,
2013-09-07 04:23:00,67.8,66.9,29.82,West,270,4.0,4.0,97,0.00,,,0.00,meteohub,2013-09-07 11:23:00,
2013-09-07 04:28:00,68.0,67.1,29.82,West,270,4.0,4.0,97,0.00,,,0.00,meteohub,2013-09-07 11:28:00,
2013-09-07 04:33:00,68.0,67.5,29.82,West,270,2.0,4.0,98,0.00,,,0.00,meteohub,2013-09-07 11:33:00,
2013-09-07 04:38:00,67.8,67.3,29.82,West,270,1.0,4.0,98,0.00,,,0.00,meteohub,2013-09-07 11:38:00,
2013-09-07 04:43:00,67.6,66.7,29.82,West,270,0.0,4.0,97,0.00,,,0.00,meteohub,2013-09-07 11:43:00,
2013-09-07 04:48:00,67.5,66.9,29.82,West,270,1.0,4.0,98,0.00,,,0.00,meteohub,2013-09-07 11:48:00,
2013-09-07 04:53:00,67.5,66.9,29.82,West,270,2.0,2.0,98,0.00,,,0.00,meteohub,2013-09-07 11:53:00,
2013-09-07 04:58:00,67.3,66.7,29.82,West,270,0.0,2.0,98,0.00,,,0.00,meteohub,2013-09-07 11:58:00,
2013-09-07 05:03:00,67.1,66.6,29.82,West,270,0.0,2.0,98,0.00,,,0.00,meteohub,2013-09-07 12:03:00,
2013-09-07 05:08:00,66.9,66.4,29.83,West,270,0.0,2.0,98,0.00,,,0.00,meteohub,2013-09-07 12:08:00,
2013-09-07 05:13:00,66.9,66.6,29.83,West,270,0.0,2.0,99,0.00,,,0.00,meteohub,2013-09-07 12:13:00,
2013-09-07 05:18:00,66.9,66.6,29.83,WSW,248,1.0,2.0,99,0.00,,,0.00,meteohub,2013-09-07 12:18:00,
2013-09-07 05:23:00,66.7,66.4,29.83,West,270,0.0,2.0,99,0.00,,,0.00,meteohub,2013-09-07 12:23:00,
2013-09-07 05:28:00,66.9,66.6,29.83,West,270,0.0,2.0,99,0.00,,,0.00,meteohub,2013-09-07 12:28:00,
2013-09-07 05:33:00,66.7,66.4,29.83,West,270,0.0,2.0,99,0.00,,,0.00,meteohub,2013-09-07 12:33:00,
2013-09-07 05:38:00,66.6,66.2,29.83,West,270,0.0,0.0,99,0.00,,,0.00,meteohub,2013-09-07 12:38:00,
2013-09-07 05:43:00,66.6,66.2,29.83,West,270,0.0,0.0,99,0.00,,,0.00,meteohub,2013-09-07 12:43:00,
2013-09-07 05:48:00,66.4,66.0,29.84,West,270,0.0,0.0,99,0.00,,,0.00,meteohub,2013-09-07 12:48:00,
2013-09-07 05:53:00,66.4,66.0,29.83,West,270,0.0,0.0,99,0.00,,,0.00,meteohub,2013-09-07 12:53:00,
2013-09-07 05:58:00,66.4,66.0,29.83,West,270,0.0,0.0,99,0.00,,,0.00,meteohub,2013-09-07 12:58:00,
2013-09-07 06:03:00,66.2,65.8,29.83,West,270,0.0,0.0,99,0.00,,,0.00,meteohub,2013-09-07 13:03:00,
2013-09-07 06:08:00,66.0,65.7,29.83,West,270,0.0,0.0,99,0.00,,,0.00,meteohub,2013-09-07 13:08:00,
2013-09-07 06:13:00,65.7,65.3,29.84,West,270,0.0,0.0,99,0.00,,,0.00,meteohub,2013-09-07 13:13:00,
2013-09-07 06:18:00,65.8,65.5,29.84,West,270,0.0,0.0,99,0.00,,,0.00,meteohub,2013-09-07 13:18:00,
2013-09-07 06:23:00,66.0,65.7,29.84,West,270,0.0,0.0,99,0.00,,,0.00,meteohub,2013-09-07 13:23:00,
2013-09-07 06:28:00,66.6,66.2,29.84,West,270,2.0,0.0,99,0.00,,,0.00,meteohub,2013-09-07 13:28:00,
2013-09-07 06:33:00,66.6,66.2,29.84,West,270,0.0,2.0,99,0.00,,,0.00,meteohub,2013-09-07 13:33:00,
2013-09-07 06:38:00,66.6,66.2,29.84,West,270,1.0,2.0,99,0.00,,,0.00,meteohub,2013-09-07 13:38:00,
2013-09-07 06:43:00,66.6,66.2,29.85,West,270,0.0,2.0,99,0.00,,,0.00,meteohub,2013-09-07 13:43:00,
2013-09-07 06:48:00,66.7,66.4,29.85,West,270,0.0,2.0,99,0.00,,,0.00,meteohub,2013-09-07 13:48:00,
2013-09-07 06:53:00,66.9,66.6,29.84,West,270,2.0,2.0,99,0.00,,,0.00,meteohub,2013-09-07 13:53:00,
2013-09-07 06:58:00,67.6,67.3,29.84,West,270,2.0,2.0,99,0.00,,,0.00,meteohub,2013-09-07 13:58:00,
2013-09-07 07:03:00,68.7,68.4,29.85,West,270,2.0,2.0,99,0.00,,,0.00,meteohub,2013-09-07 14:03:00,
2013-09-07 07:08:00,69.8,69.4,29.84,West,270,2.0,2.0,99,0.00,,,0.00,meteohub,2013-09-07 14:08:00,
2013-09-07 07:13:00,70.5,69.3,29.85,West,270,2.0,2.0,96,0.00,,,0.00,meteohub,2013-09-07 14:13:00,
2013-09-07 07:18:00,71.4,69.6,29.85,West,270,0.0,2.0,94,0.00,,,0.00,meteohub,2013-09-07 14:18:00,
2013-09-07 07:23:00,72.3,69.6,29.85,West,270,2.0,2.0,91,0.00,,,0.00,meteohub,2013-09-07 14:23:00,
2013-09-07 07:28:00,73.4,70.0,29.84,West,270,1.0,2.0,89,0.00,,,0.00,meteohub,2013-09-07 14:28:00,
2013-09-07 07:33:00,74.1,69.3,29.85,West,270,2.0,2.0,85,0.00,,,0.00,meteohub,2013-09-07 14:33:00,
2013-09-07 07:38:00,75.2,69.6,29.85,West,270,2.0,2.0,83,0.00,,,0.00,meteohub,2013-09-07 14:38:00,
2013-09-07 07:43:00,77.2,71.2,29.85,West,270,0.0,2.0,82,0.00,,,0.00,meteohub,2013-09-07 14:43:00,
2013-09-07 07:48:00,80.2,73.0,29.85,West,270,0.0,2.0,79,0.00,,,0.00,meteohub,2013-09-07 14:48:00,
2013-09-07 07:53:00,82.6,72.1,29.85,West,270,2.0,2.0,71,0.00,,,0.00,meteohub,2013-09-07 14:53:00,
2013-09-07 07:58:00,82.4,70.7,29.85,West,270,1.0,2.0,68,0.00,,,0.00,meteohub,2013-09-07 14:58:00,
2013-09-07 08:03:00,82.6,70.0,29.85,West,270,0.0,2.0,66,0.00,,,0.00,meteohub,2013-09-07 15:03:00,
2013-09-07 08:08:00,83.3,70.7,29.85,West,270,1.0,2.0,66,0.00,,,0.00,meteohub,2013-09-07 15:08:00,
2013-09-07 08:13:00,84.7,70.3,29.85,West,270,1.0,2.0,62,0.00,,,0.00,meteohub,2013-09-07 15:13:00,
2013-09-07 08:18:00,84.9,68.9,29.85,West,270,2.0,2.0,59,0.00,,,0.00,meteohub,2013-09-07 15:18:00,
2013-09-07 08:23:00,86.0,70.5,29.86,West,270,2.0,2.0,60,0.00,,,0.00,meteohub,2013-09-07 15:23:00,
2013-09-07 08:28:00,86.5,70.5,29.86,West,270,2.0,2.0,59,0.00,,,0.00,meteohub,2013-09-07 15:28:00,
2013-09-07 08:33:00,86.2,68.7,29.86,West,270,2.0,2.0,56,0.00,,,0.00,meteohub,2013-09-07 15:33:00,
2013-09-07 08:38:00,86.2,68.2,29.85,North,0,2.0,2.0,55,0.00,,,0.00,meteohub,2013-09-07 15:38:00,
2013-09-07 08:43:00,87.3,69.6,29.86,North,0,2.0,3.0,56,0.00,,,0.00,meteohub,2013-09-07 15:43:00,
2013-09-07 08:48:00,87.4,68.7,29.85,North,0,3.0,3.0,54,0.00,,,0.00,meteohub,2013-09-07 15:48:00,
2013-09-07 08:53:00,88.2,69.4,29.86,North,0,2.0,3.0,54,0.00,,,0.00,meteohub,2013-09-07 15:53:00,
2013-09-07 08:58:00,87.8,68.5,29.85,North,0,2.0,3.0,53,0.00,,,0.00,meteohub,2013-09-07 15:58:00,
2013-09-07 09:03:00,87.4,68.7,29.85,North,0,3.0,3.0,54,0.00,,,0.00,meteohub,2013-09-07 16:03:00,
2013-09-07 09:08:00,87.3,68.0,29.85,North,0,2.0,3.0,53,0.00,,,0.00,meteohub,2013-09-07 16:08:00,
2013-09-07 09:13:00,87.8,68.0,29.85,NW,315,4.0,4.0,52,0.00,,,0.00,meteohub,2013-09-07 16:13:00,
2013-09-07 09:18:00,88.9,68.4,29.85,NW,315,3.0,4.0,51,0.00,,,0.00,meteohub,2013-09-07 16:18:00,
2013-09-07 09:23:00,89.4,68.9,29.85,North,0,2.0,4.0,51,0.00,,,0.00,meteohub,2013-09-07 16:23:00,
2013-09-07 09:28:00,88.9,67.8,29.85,NW,315,3.0,4.0,50,0.00,,,0.00,meteohub,2013-09-07 16:28:00,
2013-09-07 09:33:00,88.9,67.3,29.85,West,270,3.0,5.0,49,0.00,,,0.00,meteohub,2013-09-07 16:33:00,
2013-09-07 09:38:00,89.4,68.4,29.86,North,0,3.0,5.0,50,0.00,,,0.00,meteohub,2013-09-07 16:38:00,
2013-09-07 09:43:00,89.6,67.3,29.86,North,0,3.0,4.0,48,0.00,,,0.00,meteohub,2013-09-07 16:43:00,
2013-09-07 09:48:00,92.1,68.9,29.86,North,0,2.0,4.0,47,0.00,,,0.00,meteohub,2013-09-07 16:48:00,
2013-09-07 09:53:00,92.7,66.9,29.86,NW,315,2.0,4.0,43,0.00,,,0.00,meteohub,2013-09-07 16:53:00,
2013-09-07 09:58:00,94.1,66.7,29.86,West,270,2.0,4.0,41,0.00,,,0.00,meteohub,2013-09-07 16:58:00,
2013-09-07 10:03:00,92.8,65.7,29.86,West,270,2.0,4.0,41,0.00,,,0.00,meteohub,2013-09-07 17:03:00,
2013-09-07 10:08:00,93.0,66.6,29.86,West,270,2.0,4.0,42,0.00,,,0.00,meteohub,2013-09-07 17:08:00,
2013-09-07 10:13:00,95.0,68.4,29.86,NW,315,2.0,3.0,42,0.00,,,0.00,meteohub,2013-09-07 17:13:00,
2013-09-07 10:18:00,92.7,68.2,29.86,West,270,7.0,7.0,45,0.00,,,0.00,meteohub,2013-09-07 17:18:00,
2013-09-07 10:23:00,90.5,68.7,29.86,West,270,6.0,7.0,49,0.00,,,0.00,meteohub,2013-09-07 17:23:00,
2013-09-07 10:28:00,89.6,68.5,29.86,West,270,6.0,7.0,50,0.00,,,0.00,meteohub,2013-09-07 17:28:00,
2013-09-07 10:34:00,89.2,68.7,29.86,West,270,4.0,9.0,51,0.00,,,0.00,meteohub,2013-09-07 17:34:00,
2013-09-07 10:39:00,89.4,68.9,29.86,NW,315,5.0,9.0,51,0.00,,,0.00,meteohub,2013-09-07 17:39:00,
2013-09-07 10:44:00,88.9,68.4,29.86,West,270,7.0,9.0,51,0.00,,,0.00,meteohub,2013-09-07 17:44:00,
2013-09-07 10:49:00,88.2,68.4,29.86,West,270,8.0,8.0,52,0.00,,,0.00,meteohub,2013-09-07 17:49:00,
2013-09-07 10:54:00,88.3,69.1,29.86,West,270,4.0,8.0,53,0.00,,,0.00,meteohub,2013-09-07 17:54:00,
2013-09-07 10:59:00,89.1,68.0,29.86,NW,315,4.0,8.0,50,0.00,,,0.00,meteohub,2013-09-07 17:59:00,
2013-09-07 11:04:00,90.0,67.6,29.86,West,270,5.0,8.0,48,0.00,,,0.00,meteohub,2013-09-07 18:04:00,
2013-09-07 11:09:00,90.0,66.4,29.86,NW,315,5.0,8.0,46,0.00,,,0.00,meteohub,2013-09-07 18:09:00,
2013-09-07 11:14:00,89.4,67.1,29.86,West,270,7.0,7.0,48,0.00,,,0.00,meteohub,2013-09-07 18:14:00,
2013-09-07 11:19:00,88.9,67.3,29.86,West,270,8.0,8.0,49,0.00,,,0.00,meteohub,2013-09-07 18:19:00,
2013-09-07 11:24:00,89.1,66.7,29.85,NW,315,8.0,9.0,48,0.00,,,0.00,meteohub,2013-09-07 18:24:00,
2013-09-07 11:29:00,89.1,67.5,29.85,West,270,5.0,9.0,49,0.00,,,0.00,meteohub,2013-09-07 18:29:00,
2013-09-07 11:34:00,89.2,67.6,29.85,NW,315,7.0,9.0,49,0.00,,,0.00,meteohub,2013-09-07 18:34:00,
2013-09-07 11:39:00,88.9,67.3,29.85,West,270,8.0,8.0,49,0.00,,,0.00,meteohub,2013-09-07 18:39:00,
2013-09-07 11:44:00,87.8,67.5,29.85,NW,315,8.0,9.0,51,0.00,,,0.00,meteohub,2013-09-07 18:44:00,
2013-09-07 11:49:00,88.0,67.6,29.85,WSW,248,6.0,10.0,51,0.00,,,0.00,meteohub,2013-09-07 18:49:00,
2013-09-07 11:54:00,88.0,67.6,29.85,West,270,8.0,10.0,51,0.00,,,0.00,meteohub,2013-09-07 18:54:00,
2013-09-07 11:59:00,88.0,66.9,29.85,NW,315,7.0,10.0,50,0.00,,,0.00,meteohub,2013-09-07 18:59:00,
2013-09-07 12:04:00,88.3,67.3,29.85,NW,315,4.0,10.0,50,0.00,,,0.00,meteohub,2013-09-07 19:04:00,
2013-09-07 12:09:00,88.5,67.5,29.85,NW,315,8.0,10.0,50,0.00,,,0.00,meteohub,2013-09-07 19:09:00,
2013-09-07 12:14:00,88.5,66.9,29.84,West,270,8.0,10.0,49,0.00,,,0.00,meteohub,2013-09-07 19:14:00,
2013-09-07 12:19:00,88.5,67.5,29.84,NW,315,7.0,8.0,50,0.00,,,0.00,meteohub,2013-09-07 19:19:00,
2013-09-07 12:24:00,88.7,67.1,29.84,NW,315,7.0,8.0,49,0.00,,,0.00,meteohub,2013-09-07 19:24:00,
2013-09-07 12:29:00,88.9,66.6,29.84,West,270,5.0,11.0,48,0.00,,,0.00,meteohub,2013-09-07 19:29:00,
2013-09-07 12:34:00,89.8,66.2,29.84,WNW,293,6.0,11.0,46,0.00,,,0.00,meteohub,2013-09-07 19:34:00,
2013-09-07 12:39:00,90.1,64.6,29.83,West,270,11.0,11.0,43,0.00,,,0.00,meteohub,2013-09-07 19:39:00,
2013-09-07 12:44:00,89.8,64.2,29.83,West,270,9.0,10.0,43,0.00,,,0.00,meteohub,2013-09-07 19:44:00,
2013-09-07 12:49:00,90.5,64.9,29.84,NW,315,10.0,11.0,43,0.00,,,0.00,meteohub,2013-09-07 19:49:00,
2013-09-07 12:54:00,90.5,64.2,29.83,West,270,9.0,11.0,42,0.00,,,0.00,meteohub,2013-09-07 19:54:00,
2013-09-07 12:59:00,90.7,63.0,29.83,West,270,10.0,10.0,40,0.00,,,0.00,meteohub,2013-09-07 19:59:00,
2013-09-07 13:04:00,89.6,63.5,29.83,West,270,10.0,10.0,42,0.00,,,0.00,meteohub,2013-09-07 20:04:00,
2013-09-07 13:09:00,89.4,61.9,29.83,West,270,11.0,11.0,40,0.00,,,0.00,meteohub,2013-09-07 20:09:00,
2013-09-07 13:14:00,90.9,61.7,29.82,NW,315,8.0,11.0,38,0.00,,,0.00,meteohub,2013-09-07 20:14:00,
2013-09-07 13:19:00,90.1,61.2,29.82,West,270,8.0,11.0,38,0.00,,,0.00,meteohub,2013-09-07 20:19:00,
2013-09-07 13:25:00,90.0,61.0,29.82,West,270,10.0,11.0,38,0.00,,,0.00,meteohub,2013-09-07 20:25:00,
2013-09-07 13:30:00,90.7,61.5,29.82,West,270,10.0,11.0,38,0.00,,,0.00,meteohub,2013-09-07 20:30:00,
2013-09-07 13:35:00,91.4,61.5,29.82,WNW,293,10.0,11.0,37,0.00,,,0.00,meteohub,2013-09-07 20:35:00,
2013-09-07 13:40:00,91.0,62.6,29.82,NNW,338,8.0,10.0,39,0.00,,,0.00,meteohub,2013-09-07 20:40:00,
2013-09-07 13:45:00,89.8,61.5,29.81,WNW,293,8.0,10.0,39,0.00,,,0.00,meteohub,2013-09-07 20:45:00,
2013-09-07 13:50:00,88.9,61.5,29.81,NW,315,10.0,11.0,40,0.00,,,0.00,meteohub,2013-09-07 20:50:00,
2013-09-07 13:55:00,88.3,60.3,29.81,West,270,9.0,12.0,39,0.00,,,0.00,meteohub,2013-09-07 20:55:00,
2013-09-07 14:00:00,88.7,62.1,29.81,NW,315,6.0,12.0,41,0.00,,,0.00,meteohub,2013-09-07 21:00:00,
2013-09-07 14:05:00,88.5,61.9,29.81,NW,315,9.0,12.0,41,0.00,,,0.00,meteohub,2013-09-07 21:05:00,
2013-09-07 14:10:00,88.7,62.1,29.80,WNW,293,12.0,12.0,41,0.00,,,0.00,meteohub,2013-09-07 21:10:00,
2013-09-07 14:15:00,89.8,60.8,29.80,West,270,14.0,14.0,38,0.00,,,0.00,meteohub,2013-09-07 21:15:00,
2013-09-07 14:20:00,89.2,60.3,29.80,NW,315,11.0,14.0,38,0.00,,,0.00,meteohub,2013-09-07 21:20:00,
2013-09-07 14:25:00,88.7,61.3,29.80,West,270,9.0,14.0,40,0.00,,,0.00,meteohub,2013-09-07 21:25:00,
2013-09-07 14:30:00,89.1,62.2,29.80,NW,315,10.0,14.0,41,0.00,,,0.00,meteohub,2013-09-07 21:30:00,
2013-09-07 14:35:00,89.6,62.8,29.80,NW,315,10.0,13.0,41,0.00,,,0.00,meteohub,2013-09-07 21:35:00,
2013-09-07 14:40:00,89.2,63.9,29.80,NW,315,10.0,11.0,43,0.00,,,0.00,meteohub,2013-09-07 21:40:00,
2013-09-07 14:45:00,90.0,63.1,29.79,NW,315,8.0,11.0,41,0.00,,,0.00,meteohub,2013-09-07 21:45:00,
2013-09-07 14:50:00,90.3,62.8,29.79,NW,315,8.0,11.0,40,0.00,,,0.00,meteohub,2013-09-07 21:50:00,
2013-09-07 14:55:00,90.7,63.7,29.79,West,270,8.0,10.0,41,0.00,,,0.00,meteohub,2013-09-07 21:55:00,
2013-09-07 15:00:00,91.8,64.0,29.79,NW,315,6.0,9.0,40,0.00,,,0.00,meteohub,2013-09-07 22:00:00,
2013-09-07 15:05:00,92.7,64.8,29.79,NW,315,8.0,9.0,40,0.00,,,0.00,meteohub,2013-09-07 22:05:00,
2013-09-07 15:10:00,92.7,65.5,29.79,WNW,293,4.0,8.0,41,0.00,,,0.00,meteohub,2013-09-07 22:10:00,
2013-09-07 15:15:00,93.2,66.0,29.79,WNW,293,6.0,8.0,41,0.00,,,0.00,meteohub,2013-09-07 22:15:00,
2013-09-07 15:20:00,94.1,63.1,29.79,NE,45,5.0,8.0,36,0.00,,,0.00,meteohub,2013-09-07 22:20:00,
2013-09-07 15:25:00,95.0,63.1,29.79,North,0,4.0,8.0,35,0.00,,,0.00,meteohub,2013-09-07 22:25:00,
2013-09-07 15:30:00,95.7,62.8,29.79,North,0,4.0,9.0,34,0.00,,,0.00,meteohub,2013-09-07 22:30:00,
2013-09-07 15:35:00,95.7,62.8,29.79,NE,45,2.0,9.0,34,0.00,,,0.00,meteohub,2013-09-07 22:35:00,
2013-09-07 15:40:00,95.5,61.9,29.79,North,0,4.0,9.0,33,0.00,,,0.00,meteohub,2013-09-07 22:40:00,
2013-09-07 15:45:00,94.8,59.5,29.78,North,0,9.0,9.0,31,0.00,,,0.00,meteohub,2013-09-07 22:45:00,
2013-09-07 15:51:00,93.7,60.3,29.79,North,0,5.0,9.0,33,0.00,,,0.00,meteohub,2013-09-07 22:51:00,
2013-09-07 15:56:00,94.1,59.7,29.79,WNW,293,7.0,9.0,32,0.00,,,0.00,meteohub,2013-09-07 22:56:00,
2013-09-07 16:01:00,94.3,59.9,29.78,North,0,4.0,9.0,32,0.00,,,0.00,meteohub,2013-09-07 23:01:00,
2013-09-07 16:06:00,94.1,58.8,29.78,North,0,5.0,8.0,31,0.00,,,0.00,meteohub,2013-09-07 23:06:00,
2013-09-07 16:11:00,93.7,60.3,29.78,North,0,4.0,8.0,33,0.00,,,0.00,meteohub,2013-09-07 23:11:00,
2013-09-07 16:16:00,93.4,59.2,29.78,North,0,6.0,10.0,32,0.00,,,0.00,meteohub,2013-09-07 23:16:00,
2013-09-07 16:21:00,92.8,61.2,29.78,NNE,23,4.0,10.0,35,0.00,,,0.00,meteohub,2013-09-07 23:21:00,
2013-09-07 16:26:00,92.8,61.2,29.78,NE,45,6.0,10.0,35,0.00,,,0.00,meteohub,2013-09-07 23:26:00,
2013-09-07 16:31:00,93.2,60.6,29.78,NE,45,4.0,8.0,34,0.00,,,0.00,meteohub,2013-09-07 23:31:00,
2013-09-07 16:36:00,93.6,61.0,29.78,North,0,3.0,8.0,34,0.00,,,0.00,meteohub,2013-09-07 23:36:00,
2013-09-07 16:41:00,93.0,60.4,29.78,East,90,4.0,8.0,34,0.00,,,0.00,meteohub,2013-09-07 23:41:00,
2013-09-07 16:46:00,92.5,61.7,29.78,ESE,113,6.0,8.0,36,0.00,,,0.00,meteohub,2013-09-07 23:46:00,
2013-09-07 16:51:00,92.8,61.2,29.78,NE,45,7.0,8.0,35,0.00,,,0.00,meteohub,2013-09-07 23:51:00,
2013-09-07 16:56:00,92.1,60.4,29.78,NNE,23,8.0,8.0,35,0.00,,,0.00,meteohub,2013-09-07 23:56:00,
2013-09-07 17:01:00,91.6,60.1,29.78,North,0,4.0,8.0,35,0.00,,,0.00,meteohub,2013-09-08 00:01:00,
2013-09-07 17:06:00,91.2,60.6,29.78,North,0,4.0,8.0,36,0.00,,,0.00,meteohub,2013-09-08 00:06:00,
2013-09-07 17:11:00,91.9,60.4,29.79,NNE,23,5.0,8.0,35,0.00,,,0.00,meteohub,2013-09-08 00:11:00,
2013-09-07 17:16:00,91.9,60.4,29.79,SE,135,5.0,8.0,35,0.00,,,0.00,meteohub,2013-09-08 00:16:00,
2013-09-07 17:21:00,91.8,60.3,29.79,NE,45,2.0,8.0,35,0.00,,,0.00,meteohub,2013-09-08 00:21:00,
2013-09-07 17:26:00,91.2,60.6,29.79,NE,45,3.0,6.0,36,0.00,,,0.00,meteohub,2013-09-08 00:26:00,
2013-09-07 17:31:00,91.2,60.6,29.79,NW,315,4.0,6.0,36,0.00,,,0.00,meteohub,2013-09-08 00:31:00,
2013-09-07 17:36:00,90.1,59.5,29.80,NW,315,2.0,4.0,36,0.00,,,0.00,meteohub,2013-09-08 00:36:00,
2013-09-07 17:41:00,88.5,65.7,29.80,West,270,5.0,7.0,47,0.00,,,0.00,meteohub,2013-09-08 00:41:00,
2013-09-07 17:46:00,87.3,65.8,29.80,South,180,4.0,7.0,49,0.00,,,0.00,meteohub,2013-09-08 00:46:00,
2013-09-07 17:51:00,85.8,66.7,29.80,WNW,293,6.0,7.0,53,0.00,,,0.00,meteohub,2013-09-08 00:51:00,
2013-09-07 17:56:00,84.7,66.7,29.80,West,270,4.0,7.0,55,0.00,,,0.00,meteohub,2013-09-08 00:56:00,
2013-09-07 18:01:00,84.6,66.0,29.81,West,270,6.0,7.0,54,0.00,,,0.00,meteohub,2013-09-08 01:01:00,
2013-09-07 18:06:00,83.7,65.8,29.81,West,270,7.0,8.0,55,0.00,,,0.00,meteohub,2013-09-08 01:06:00,
2013-09-07 18:11:00,82.8,65.5,29.81,NW,315,8.0,8.0,56,0.00,,,0.00,meteohub,2013-09-08 01:11:00,
2013-09-07 18:16:00,81.5,65.8,29.80,NW,315,8.0,8.0,59,0.00,,,0.00,meteohub,2013-09-08 01:16:00,
2013-09-07 18:21:00,81.0,66.2,29.80,NW,315,7.0,8.0,61,0.00,,,0.00,meteohub,2013-09-08 01:21:00,
2013-09-07 18:26:00,80.4,65.7,29.80,WNW,293,5.0,8.0,61,0.00,,,0.00,meteohub,2013-09-08 01:26:00,
2013-09-07 18:31:00,79.5,65.8,29.80,WNW,293,4.0,8.0,63,0.00,,,0.00,meteohub,2013-09-08 01:31:00,
2013-09-07 18:36:00,79.3,66.0,29.80,NW,315,4.0,8.0,64,0.00,,,0.00,meteohub,2013-09-08 01:36:00,
2013-09-07 18:41:00,78.8,66.0,29.80,West,270,4.0,8.0,65,0.00,,,0.00,meteohub,2013-09-08 01:41:00,
2013-09-07 18:46:00,78.6,65.8,29.81,WNW,293,5.0,7.0,65,0.00,,,0.00,meteohub,2013-09-08 01:46:00,
2013-09-07 18:51:00,78.3,66.0,29.81,NW,315,4.0,7.0,66,0.00,,,0.00,meteohub,2013-09-08 01:51:00,
2013-09-07 18:56:00,77.9,65.7,29.81,NW,315,5.0,7.0,66,0.00,,,0.00,meteohub,2013-09-08 01:56:00,
2013-09-07 19:01:00,77.4,65.5,29.81,NW,315,7.0,7.0,67,0.00,,,0.00,meteohub,2013-09-08 02:01:00,
2013-09-07 19:06:00,76.8,65.8,29.81,WNW,293,5.0,7.0,69,0.00,,,0.00,meteohub,2013-09-08 02:06:00,
2013-09-07 19:11:00,76.3,65.8,29.81,NW,315,3.0,7.0,70,0.00,,,0.00,meteohub,2013-09-08 02:11:00,
2013-09-07 19:16:00,76.1,66.0,29.81,WNW,293,5.0,7.0,71,0.00,,,0.00,meteohub,2013-09-08 02:16:00,
2013-09-07 19:21:00,75.7,66.0,29.81,West,270,3.0,6.0,72,0.00,,,0.00,meteohub,2013-09-08 02:21:00,
2013-09-07 19:26:00,75.2,66.0,29.81,West,270,4.0,5.0,73,0.00,,,0.00,meteohub,2013-09-08 02:26:00,
2013-09-07 19:31:00,74.8,66.0,29.82,West,270,3.0,5.0,74,0.00,,,0.00,meteohub,2013-09-08 02:31:00,
2013-09-07 19:37:00,74.3,65.8,29.82,West,270,4.0,6.0,75,0.00,,,0.00,meteohub,2013-09-08 02:37:00,
2013-09-07 19:42:00,73.9,65.8,29.82,West,270,4.0,6.0,76,0.00,,,0.00,meteohub,2013-09-08 02:42:00,
2013-09-07 19:47:00,73.6,66.7,29.82,South,180,3.0,6.0,79,0.00,,,0.00,meteohub,2013-09-08 02:47:00,
2013-09-07 19:52:00,72.9,66.7,29.82,West,270,3.0,4.0,81,0.00,,,0.00,meteohub,2013-09-08 02:52:00,
2013-09-07 19:57:00,72.3,66.9,29.83,West,270,4.0,4.0,83,0.00,,,0.00,meteohub,2013-09-08 02:57:00,
2013-09-07 20:02:00,72.0,66.6,29.83,WNW,293,2.0,4.0,83,0.00,,,0.00,meteohub,2013-09-08 03:02:00,
2013-09-07 20:07:00,72.0,67.3,29.83,West,270,4.0,4.0,85,0.00,,,0.00,meteohub,2013-09-08 03:07:00,
2013-09-07 20:12:00,71.8,67.1,29.83,West,270,4.0,4.0,85,0.00,,,0.00,meteohub,2013-09-08 03:12:00,
2013-09-07 20:17:00,71.4,67.1,29.83,West,270,4.0,4.0,86,0.00,,,0.00,meteohub,2013-09-08 03:17:00,
2013-09-07 20:22:00,71.4,67.1,29.84,West,270,4.0,5.0,86,0.00,,,0.00,meteohub,2013-09-08 03:22:00,
2013-09-07 20:27:00,71.4,67.1,29.84,West,270,3.0,6.0,86,0.00,,,0.00,meteohub,2013-09-08 03:27:00,
2013-09-07 20:32:00,71.1,66.9,29.84,West,270,6.0,6.0,87,0.00,,,0.00,meteohub,2013-09-08 03:32:00,
2013-09-07 20:37:00,70.9,67.1,29.83,West,270,4.0,6.0,88,0.00,,,0.00,meteohub,2013-09-08 03:37:00,
2013-09-07 20:42:00,70.7,66.9,29.84,West,270,2.0,6.0,88,0.00,,,0.00,meteohub,2013-09-08 03:42:00,
2013-09-07 20:47:00,70.5,67.1,29.84,West,270,3.0,6.0,89,0.00,,,0.00,meteohub,2013-09-08 03:47:00,
2013-09-07 20:52:00,70.3,67.3,29.84,West,270,0.0,4.0,90,0.00,,,0.00,meteohub,2013-09-08 03:52:00,
2013-09-07 20:57:00,70.3,67.3,29.84,West,270,4.0,4.0,90,0.00,,,0.00,meteohub,2013-09-08 03:57:00,
2013-09-07 21:01:00,70.3,67.3,29.84,WNW,293,2.0,4.0,90,0.00,,,0.00,meteohub,2013-09-08 04:01:00,
2013-09-07 21:02:00,70.3,67.3,29.84,NW,315,4.0,4.0,90,0.00,,,0.00,meteohub,2013-09-08 04:02:00,
2013-09-07 21:07:00,70.0,67.3,29.84,West,270,4.0,4.0,91,0.00,,,0.00,meteohub,2013-09-08 04:07:00,
2013-09-07 21:12:00,70.0,67.5,29.84,West,270,5.0,5.0,92,0.00,,,0.00,meteohub,2013-09-08 04:12:00,
2013-09-07 21:17:00,69.8,67.6,29.84,NW,315,4.0,5.0,93,0.00,,,0.00,meteohub,2013-09-08 04:17:00,
2013-09-07 21:22:00,69.6,67.5,29.85,West,270,3.0,6.0,93,0.00,,,0.00,meteohub,2013-09-08 04:22:00,
2013-09-07 21:27:00,69.6,67.8,29.84,West,270,3.0,6.0,94,0.00,,,0.00,meteohub,2013-09-08 04:27:00,
2013-09-07 21:33:00,69.4,68.0,29.85,West,270,4.0,6.0,95,0.00,,,0.00,meteohub,2013-09-08 04:33:00,
2013-09-07 21:38:00,69.3,67.8,29.85,West,270,2.0,4.0,95,0.00,,,0.00,meteohub,2013-09-08 04:38:00,
2013-09-07 21:43:00,69.3,68.0,29.85,West,270,5.0,5.0,96,0.00,,,0.00,meteohub,2013-09-08 04:43:00,
2013-09-07 21:47:00,69.1,67.8,29.85,West,270,2.0,5.0,96,0.00,,,0.00,meteohub,2013-09-08 04:47:00,
2013-09-07 21:53:00,68.7,67.8,29.85,West,270,4.0,5.0,97,0.00,,,0.00,meteohub,2013-09-08 04:53:00,
2013-09-07 21:58:00,68.5,68.0,29.84,West,270,4.0,5.0,98,0.00,,,0.00,meteohub,2013-09-08 04:58:00,
2013-09-07 22:03:00,68.5,68.2,29.85,West,270,4.0,4.0,99,0.00,,,0.00,meteohub,2013-09-08 05:03:00,
2013-09-07 22:08:00,68.4,68.0,29.85,West,270,4.0,4.0,99,0.00,,,0.00,meteohub,2013-09-08 05:08:00,
2013-09-07 22:13:00,68.2,67.8,29.85,West,270,2.0,4.0,99,0.00,,,0.00,meteohub,2013-09-08 05:13:00,
2013-09-07 22:18:00,68.2,67.8,29.85,West,270,2.0,4.0,99,0.00,,,0.00,meteohub,2013-09-08 05:18:00,
2013-09-07 22:23:00,68.2,67.8,29.85,West,270,2.0,4.0,99,0.00,,,0.00,meteohub,2013-09-08 05:23:00,
2013-09-07 22:28:00,68.2,67.8,29.86,WNW,293,4.0,4.0,99,0.00,,,0.00,meteohub,2013-09-08 05:28:00,
2013-09-07 22:33:00,68.2,67.8,29.86,WNW,293,1.0,4.0,99,0.00,,,0.00,meteohub,2013-09-08 05:33:00,
2013-09-07 22:38:00,68.2,67.8,29.86,WNW,293,0.0,4.0,99,0.00,,,0.00,meteohub,2013-09-08 05:38:00,
2013-09-07 22:43:00,68.0,67.6,29.85,West,270,2.0,4.0,99,0.00,,,0.00,meteohub,2013-09-08 05:43:00,
2013-09-07 22:48:00,67.8,67.5,29.85,West,270,2.0,4.0,99,0.00,,,0.00,meteohub,2013-09-08 05:48:00,
2013-09-07 22:53:00,67.6,67.3,29.85,West,270,2.0,4.0,99,0.00,,,0.00,meteohub,2013-09-08 05:53:00,
2013-09-07 22:58:00,67.5,67.1,29.85,West,270,2.0,4.0,99,0.00,,,0.00,meteohub,2013-09-08 05:58:00,
2013-09-07 23:03:00,67.3,66.9,29.85,West,270,2.0,4.0,99,0.00,,,0.00,meteohub,2013-09-08 06:03:00,
2013-09-07 23:08:00,67.1,66.7,29.86,West,270,2.0,4.0,99,0.00,,,0.00,meteohub,2013-09-08 06:08:00,
2013-09-07 23:13:00,67.1,66.7,29.85,West,270,2.0,4.0,99,0.00,,,0.00,meteohub,2013-09-08 06:13:00,
2013-09-07 23:18:00,66.9,66.6,29.85,South,180,2.0,4.0,99,0.00,,,0.00,meteohub,2013-09-08 06:18:00,
2013-09-07 23:23:00,66.7,66.4,29.85,West,270,3.0,4.0,99,0.00,,,0.00,meteohub,2013-09-08 06:23:00,
2013-09-07 23:28:00,66.9,66.6,29.85,WSW,248,2.0,5.0,99,0.00,,,0.00,meteohub,2013-09-08 06:28:00,
2013-09-07 23:33:00,66.9,66.6,29.85,SW,225,3.0,5.0,99,0.00,,,0.00,meteohub,2013-09-08 06:33:00,
2013-09-07 23:38:00,66.9,66.6,29.85,West,270,3.0,5.0,99,0.00,,,0.00,meteohub,2013-09-08 06:38:00,
2013-09-07 23:43:00,66.9,66.6,29.86,West,270,3.0,4.0,99,0.00,,,0.00,meteohub,2013-09-08 06:43:00,
2013-09-07 23:48:00,66.7,66.4,29.86,West,270,2.0,5.0,99,0.00,,,0.00,meteohub,2013-09-08 06:48:00,
2013-09-07 23:53:00,66.7,66.4,29.86,West,270,2.0,5.0,99,0.00,,,0.00,meteohub,2013-09-08 06:53:00,
2013-09-07 23:58:00,66.6,66.2,29.86,West,270,4.0,5.0,99,0.00,,,0.00,meteohub,2013-09-08 06:58:00,